AirNav   Air Wisconsin Up To $57,000 Bonus
 
 542 users online  

7A7 Mosby Army Heliport
Dahlonega, Georgia, USA

GOING TO DAHLONEGA?


FAA INFORMATION EFFECTIVE 08 SEPTEMBER 2022

Location

FAA Identifier: 7A7
Lat/Long: 34-37-35.0000N 084-06-23.0000W
34-37.583333N 084-06.383333W
34.6263889,-84.1063889
(estimated)
Elevation: 1748 ft. / 533 m (estimated)
Variation: 02W (1985)
From city: 8 miles NW of DAHLONEGA, GA
Time zone: UTC -4 (UTC -5 during Standard Time)
Zip code: 30533

Heliport Operations

Heliport use: Private use. Permission required prior to landing
Activation date: 11/1990
Control tower: no
ARTCC: ATLANTA CENTER
FSS: MACON FLIGHT SERVICE STATION
Attendance: UNATNDD
Segmented circle: no
Beacon: white-white-green (lighted military airport)
Operates sunset to sunrise.

Heliport Communications

WX AWOS-3PT at DZJ (15 nm N): 119.325 (706-745-9271)

Nearby radio navigation aids

VOR radial/distance  VOR name  Freq  Var
HRSr206/21.2HARRIS VORTAC109.8000E

 
NDB name  Hdg/Dist  Freq  Var  ID
FLOWERY BRANCH342/27.236503WFKV ..-. -.- ...-
CHERO045/29.341505WDJD -.. .--- -..

Heliport Services

Runway Information

Helipad H1

Dimensions: 40 x 40 ft. / 12 x 12 m
Surface: metal
Latitude: 34-37.583333N
Longitude: 084-06.383333W
Elevation: 1748.0 ft.
Traffic pattern: leftleft

Heliport Ownership and Management from official FAA records

Ownership: U.S. Army
Owner: U.S. ARMY

Additional Remarks

J8 FUEL AVBL.
FOR CD CTC ATLANTA ARTCC AT 770-210-7692.

Instrument Procedures

There are no published instrument procedures at 7A7.

Some nearby airports with instrument procedures:

KDZJ - Blairsville Airport (15 nm N)
KJZP - Pickens County Airport (20 nm SW)
49A - Gilmer County Airport (21 nm W)
KCNI - Cherokee County Regional Airport (24 nm SW)
KGVL - Lee Gilmer Memorial Airport (25 nm SE)
 
Loc | Ops | Rwys | IFR | FBO | Links
Com | Nav | Svcs | Stats | Notes
Area around 7A7 (Mosby Army Heliport)
 
Road maps at: MapQuest Bing Google
 
Aerial photo
No photo
 
Sectional chart

 
Airport distance calculator
Flying to Mosby Army Heliport? Find the distance to fly.

From to 7A7

Sunrise and sunset
Times for 25-Sep-2022
 Local
(UTC-4)
 Zulu
(UTC)
Morning civil twilight07:0211:02
Sunrise07:2811:28
Sunset19:2923:29
Evening civil twilight19:5423:54

Current date and time
Zulu (UTC)  25-Sep-2022 10:38:38
Local (UTC-4)  25-Sep-2022 06:38:38
 
METAR
KDZJ 
15nm N 
251015Z AUTO 03004KT 10SM -RA SCT050 BKN080 OVC120 13/13 A3004 RMK AO2 T01320130
KJZP 
20nm SW 
251015Z AUTO 00000KT 10SM -DZ SCT065 BKN085 OVC110 16/13 A3005 RMK AO2 T01620126
K49A 
21nm W 
251015Z AUTO 09003KT 10SM -DZ BKN065 OVC080 15/13 A3004 RMK AO2 T01540125
KCNI 
25nm SW 
251015Z AUTO 00000KT 10SM BKN060 BKN080 15/12 A3003 RMK AO2 T01470123
KGVL 
25nm SE 
250953Z AUTO 34005KT 10SM SCT060 OVC090 18/13 A3005 RMK AO2 SLP162 T01780128
KAJR 
28nm E 
251015Z AUTO 34004KT 10SM OVC050 17/12 A3002 RMK AO2 T01650123
TAF
KRYY 
44nm SW 
250826Z 2508/2606 VRB03KT P6SM BKN100 FM251100 26007KT P6SM SCT050 BKN080 TEMPO 2512/2516 -SHRA BKN040 FM252000 28008KT P6SM FEW060 BKN200 FM260300 VRB03KT P6SM SKC
KPDK 
46nm S 
250834Z 2509/2606 VRB03KT P6SM SCT150 FM251200 26008KT P6SM SCT060 BKN100 TEMPO 2512/2516 -SHRA BKN050 FM252300 29007KT P6SM FEW200 FM260400 VRB03KT P6SM SKC
KMGE 
47nm SW 
251004Z 2510/2603 26005KT 9999 VCSH BKN070 BKN100 BKN250 QNH3000INS BECMG 2520/2521 27012G18KT 8000 -SHRA BR BKN025 BKN050 OVC120 QNH2988INS BECMG 2523/2524 29007KT 9999 NSW FEW040 FEW250 QNH2992INS TX27/2520Z TN16/2512Z
NOTAMs
Click for the latest NOTAMs
NOTAMs are issued by the DoD/FAA and will open in a separate window not controlled by AirNav.

 

 
 

Would you like to see your business listed on this page?

 If your business provides an interesting product or service to pilots, flight crews, aircraft, or users of the Mosby Army Heliport, you should consider listing it here.  To start the listing process, click on the button below
 
Add a business
 

Other Pages about Mosby Army Heliport

Update a link
 
Copyright © AirNav, LLC. All rights reserved. Privacy Policy  Contact